Terminal Aerodrome Forecast
Issued by NWS Newport/Morehead City, NC

Home | Current Version | Previous Version | Graphics & Text | Print | Product List | Glossary On
Versions: 1 2 3 4 5 6 7 8 9 10 11 12 13 14 15 16
000
FTUS42 KMHX 270903 AAA
TAFEWN
TAF AMD
KEWN 270903Z 2709/2806 35004KT P6SM SKC
      TEMPO 2709/2711 BKN035
     FM271100 36006KT P6SM SKC
     FM280100 01004KT P6SM BKN020=

USA.gov is the U.S. government's official web portal to all federal, state and local government web resources and services.